Nekoma, Kansas
Current Conditions -  °F | °C
As of 9:35 PM on Sunday 21 Dec 2014 (Local Time) from KHYS Reporting Station
Overcast Overcast  
Wind Chill:   Ceiling: 800
Heat Index:   Visibility: 7mi
Dew Point:   Wind: 7mph
Humidity: 76%   Direction: 190°S
Pressure: 29.59"   Gusts: NA
Location:  38.47°N, 99.44°W
Report Text: KHYS 220335Z AUTO 19006KT 7SM BKN008 OVC100 05/01 A2959 RMK AO1
Loading
Personal Weather Stations






























Interactive Weather Map New forecast layout! Learn more

10-Day Weather Forecast

Advertisements
Track Severe Weather on mobile